createdAt,value
2017-10-12T00:00:19.202Z,67.78
2017-10-12T00:01:18.905Z,67.97
2017-10-12T00:02:18.922Z,67.59
2017-10-12T00:03:18.942Z,67.78
2017-10-12T00:04:18.980Z,68.16
2017-10-12T00:05:18.982Z,68.45
2017-10-12T00:06:19.004Z,68.16
2017-10-12T00:07:19.024Z,67.59
2017-10-12T00:08:19.368Z,68.16
2017-10-12T00:09:19.065Z,68.26
2017-10-12T00:10:19.084Z,67.88
2017-10-12T00:11:19.110Z,67.97
2017-10-12T00:12:19.127Z,67.78
2017-10-12T00:13:19.149Z,67.69
2017-10-12T00:14:19.171Z,67.88
2017-10-12T00:15:19.191Z,67.69
2017-10-12T00:16:19.220Z,67.49
2017-10-12T00:17:19.230Z,68.23
2017-10-12T00:18:19.254Z,68.61
2017-10-12T00:19:19.274Z,68.51
2017-10-12T00:20:19.348Z,68.8
2017-10-12T00:21:19.318Z,68.7
2017-10-12T00:22:19.338Z,68.7
2017-10-12T00:23:19.356Z,68.9
2017-10-12T00:24:19.380Z,68.9
2017-10-12T00:25:19.398Z,68.41
2017-10-12T00:26:19.421Z,68.51
2017-10-12T00:27:19.438Z,68.61
2017-10-12T00:28:19.459Z,68.61
2017-10-12T00:29:19.478Z,68.04
2017-10-12T00:30:19.501Z,68.23
2017-10-12T00:31:19.520Z,67.84
2017-10-12T00:32:19.544Z,67.75
2017-10-12T00:33:19.566Z,68.13
2017-10-12T00:34:19.596Z,67.94
2017-10-12T00:35:19.651Z,67.27
2017-10-12T00:36:19.625Z,67.75
2017-10-12T00:37:19.647Z,68.51
2017-10-12T00:38:19.664Z,68.51
2017-10-12T00:39:19.686Z,68.7
2017-10-12T00:40:19.706Z,68.76
2017-10-12T00:41:19.732Z,68.7
2017-10-12T00:42:19.766Z,68.41
2017-10-12T00:43:19.766Z,68.51
2017-10-12T00:44:19.784Z,68.61
2017-10-12T00:45:19.808Z,67.75
2017-10-12T00:46:19.827Z,68.51
2017-10-12T00:47:19.848Z,68.51
2017-10-12T00:48:19.868Z,68.13
2017-10-12T00:49:19.886Z,67.84
2017-10-12T00:50:19.980Z,68.23
2017-10-12T00:51:19.927Z,68.13
2017-10-12T00:52:19.949Z,67.94
2017-10-12T00:53:19.970Z,68.23
2017-10-12T00:54:19.989Z,68.23
2017-10-12T00:55:20.017Z,68.23
2017-10-12T00:56:20.032Z,67.84
2017-10-12T00:57:20.050Z,67.55
2017-10-12T00:58:20.404Z,67.65
2017-10-12T00:59:20.096Z,67.75
2017-10-12T01:00:20.113Z,67.46
2017-10-12T01:01:20.133Z,67.46
2017-10-12T01:02:20.152Z,67.08
2017-10-12T01:03:20.174Z,66.89
2017-10-12T01:04:20.208Z,67.18
2017-10-12T01:05:20.222Z,67.27
2017-10-12T01:06:20.239Z,66.5
2017-10-12T01:07:20.258Z,66.79
2017-10-12T01:08:20.276Z,66.92
2017-10-12T01:09:20.352Z,66.25
2017-10-12T01:10:20.318Z,66.41
2017-10-12T01:11:20.351Z,66.83
2017-10-12T01:12:20.359Z,66.6
2017-10-12T01:13:20.381Z,66.83
2017-10-12T01:14:20.404Z,66.35
2017-10-12T01:15:20.420Z,66.63
2017-10-12T01:16:20.446Z,66.6
2017-10-12T01:17:20.463Z,66.83
2017-10-12T01:18:20.807Z,66.83
2017-10-12T01:19:20.511Z,66.92
2017-10-12T01:20:20.525Z,66.54
2017-10-12T01:21:20.548Z,66.54
2017-10-12T01:22:20.565Z,66.83
2017-10-12T01:23:20.586Z,66.79
2017-10-12T01:24:20.659Z,66.99
2017-10-12T01:25:20.627Z,66.5
2017-10-12T01:26:20.647Z,67.02
2017-10-12T01:27:20.663Z,66.83
2017-10-12T01:28:20.686Z,66.99
2017-10-12T01:29:20.707Z,67.18
2017-10-12T01:30:20.728Z,67.18
2017-10-12T01:31:21.180Z,67.55
2017-10-12T01:32:21.482Z,67.65
2017-10-12T01:33:20.789Z,67.55
2017-10-12T01:34:20.810Z,67.94
2017-10-12T01:35:20.837Z,67.84
2017-10-12T01:36:20.851Z,67.55
2017-10-12T01:37:20.870Z,68.04
2017-10-12T01:38:20.891Z,67.75
2017-10-12T01:39:20.964Z,67.84
2017-10-12T01:40:20.930Z,68.04
2017-10-12T01:41:20.948Z,67.75
2017-10-12T01:42:20.973Z,68.51
2017-10-12T01:43:20.995Z,67.94
2017-10-12T01:44:21.014Z,68.04
2017-10-12T01:45:21.033Z,67.84
2017-10-12T01:46:21.374Z,67.94
2017-10-12T01:47:21.075Z,67.88
2017-10-12T01:48:21.093Z,67.84
2017-10-12T01:49:21.113Z,68.04
2017-10-12T01:50:21.134Z,68.13
2017-10-12T01:51:21.155Z,67.94
2017-10-12T01:52:21.177Z,68.23
2017-10-12T01:53:21.196Z,67.94
2017-10-12T01:54:21.266Z,68.23
2017-10-12T01:55:21.237Z,68.51
2017-10-12T01:56:21.259Z,68.99
2017-10-12T01:57:21.303Z,69.18
2017-10-12T01:58:21.299Z,68.99
2017-10-12T01:59:21.318Z,68.9
2017-10-12T02:00:21.662Z,69.09
2017-10-12T02:01:21.359Z,69.18
2017-10-12T02:02:21.380Z,69.66
2017-10-12T02:03:21.399Z,69.47
2017-10-12T02:04:21.420Z,69.47
2017-10-12T02:05:21.441Z,69.37
2017-10-12T02:06:21.461Z,69.37
2017-10-12T02:07:21.480Z,69.24
2017-10-12T02:08:21.861Z,69.34
2017-10-12T02:09:21.520Z,69.27
2017-10-12T02:10:21.592Z,69.43
2017-10-12T02:11:21.561Z,69.37
2017-10-12T02:12:21.588Z,69.09
2017-10-12T02:13:21.626Z,68.86
2017-10-12T02:14:21.621Z,68.7
2017-10-12T02:15:21.642Z,68.7
2017-10-12T02:16:21.663Z,68.51
2017-10-12T02:17:21.683Z,68.7
2017-10-12T02:18:21.705Z,68.48
2017-10-12T02:19:21.723Z,68.51
2017-10-12T02:20:21.747Z,67.94
2017-10-12T02:21:21.763Z,68.13
2017-10-12T02:22:21.781Z,68.13
2017-10-12T02:23:21.805Z,68.32
2017-10-12T02:24:21.824Z,67.84
2017-10-12T02:25:21.843Z,67.75
2017-10-12T02:26:21.865Z,67.65
2017-10-12T02:27:21.934Z,67.46
2017-10-12T02:28:21.911Z,67.27
2017-10-12T02:29:21.926Z,66.99
2017-10-12T02:30:21.944Z,67.08
2017-10-12T02:31:21.973Z,67.08
2017-10-12T02:32:21.983Z,66.79
2017-10-12T02:33:22.006Z,66.79
2017-10-12T02:34:22.030Z,66.6
2017-10-12T02:35:22.047Z,66.79
2017-10-12T02:36:22.063Z,66.22
2017-10-12T02:37:22.086Z,66.92
2017-10-12T02:38:22.106Z,66.54
2017-10-12T02:39:22.129Z,66.73
2017-10-12T02:40:22.154Z,65.87
2017-10-12T02:41:22.171Z,66.25
2017-10-12T02:42:22.236Z,66.06
2017-10-12T02:43:22.214Z,66.06
2017-10-12T02:44:22.232Z,66.06
2017-10-12T02:45:22.250Z,66.06
2017-10-12T02:46:22.276Z,66.25
2017-10-12T02:47:22.288Z,65.87
2017-10-12T02:48:22.313Z,65.97
2017-10-12T02:49:22.329Z,66.16
2017-10-12T02:50:22.376Z,65.77
2017-10-12T02:51:22.370Z,66.16
2017-10-12T02:52:22.395Z,66.16
2017-10-12T02:53:22.415Z,66.06
2017-10-12T02:54:22.430Z,66.31
2017-10-12T02:55:22.456Z,66.06
2017-10-12T02:56:22.478Z,65.58
2017-10-12T02:57:22.494Z,65.93
2017-10-12T02:58:22.837Z,65.74
2017-10-12T02:59:22.582Z,66.03
2017-10-12T03:00:22.555Z,65.93
2017-10-12T03:01:22.572Z,65.74
2017-10-12T03:02:22.594Z,66.35
2017-10-12T03:03:22.616Z,66.16
2017-10-12T03:04:22.632Z,66.35
2017-10-12T03:05:22.656Z,66.31
2017-10-12T03:06:22.675Z,66.83
2017-10-12T03:07:22.699Z,66.06
2017-10-12T03:08:22.716Z,66.03
2017-10-12T03:09:22.788Z,66.7
2017-10-12T03:10:22.764Z,66.6
2017-10-12T03:11:22.779Z,66.6
2017-10-12T03:12:22.798Z,66.7
2017-10-12T03:13:22.820Z,66.7
2017-10-12T03:14:22.838Z,66.89
2017-10-12T03:15:22.860Z,66.54
2017-10-12T03:16:22.877Z,66.16
2017-10-12T03:17:22.897Z,65.77
2017-10-12T03:18:22.925Z,65.97
2017-10-12T03:19:22.941Z,65.58
2017-10-12T03:20:22.961Z,65.39
2017-10-12T03:21:22.988Z,65.58
2017-10-12T03:22:23.002Z,65.39
2017-10-12T03:23:23.025Z,65.3
2017-10-12T03:24:23.049Z,64.82
2017-10-12T03:25:23.064Z,65.58
2017-10-12T03:26:23.135Z,64.82
2017-10-12T03:27:23.105Z,65.48
2017-10-12T03:28:23.129Z,65.48
2017-10-12T03:29:23.147Z,64.82
2017-10-12T03:30:23.171Z,65.2
2017-10-12T03:31:23.190Z,64.82
2017-10-12T03:32:23.214Z,65.2
2017-10-12T03:33:23.231Z,65.39
2017-10-12T03:34:23.249Z,65.01
2017-10-12T03:35:23.271Z,64.91
2017-10-12T03:36:23.294Z,64.62
2017-10-12T03:37:23.312Z,65.01
2017-10-12T03:38:23.335Z,64.72
2017-10-12T03:39:23.355Z,65.39
2017-10-12T03:40:23.380Z,65.3
2017-10-12T03:41:23.406Z,65.39
2017-10-12T03:42:23.415Z,65.3
2017-10-12T03:43:23.451Z,64.98
2017-10-12T03:44:23.461Z,65.01
2017-10-12T03:45:23.481Z,65.11
2017-10-12T03:46:23.500Z,65.3
2017-10-12T03:47:23.520Z,65.45
2017-10-12T03:48:23.543Z,65.55
2017-10-12T03:49:23.558Z,64.98
2017-10-12T03:50:23.582Z,64.69
2017-10-12T03:51:23.925Z,64.98
2017-10-12T03:52:23.623Z,65.26
2017-10-12T03:53:23.641Z,65.55
2017-10-12T03:54:23.661Z,65.45
2017-10-12T03:55:23.684Z,65.26
2017-10-12T03:56:23.705Z,65.07
2017-10-12T03:57:23.775Z,65.07
2017-10-12T03:58:23.755Z,64.98
2017-10-12T03:59:23.769Z,64.78
2017-10-12T04:00:23.791Z,64.98
2017-10-12T04:01:23.804Z,65.07
2017-10-12T04:02:23.823Z,65.17
2017-10-12T04:03:23.844Z,64.98
2017-10-12T04:04:23.865Z,64.59
2017-10-12T04:05:23.886Z,64.59
2017-10-12T04:06:23.914Z,63.93
2017-10-12T04:07:23.923Z,63.83
2017-10-12T04:08:23.950Z,64.12
2017-10-12T04:09:23.968Z,64.22
2017-10-12T04:10:23.987Z,63.64
2017-10-12T04:11:24.011Z,63.26
2017-10-12T04:12:24.034Z,63.64
2017-10-12T04:13:24.053Z,63.73
2017-10-12T04:14:24.118Z,63.57
2017-10-12T04:15:24.089Z,63.39
2017-10-12T04:16:24.109Z,62.9
2017-10-12T04:17:24.128Z,62.43
2017-10-12T04:18:24.154Z,62.33
2017-10-12T04:19:24.171Z,63.19
2017-10-12T04:20:24.192Z,62.33
2017-10-12T04:21:24.233Z,62.62
2017-10-12T04:22:24.234Z,62.71
2017-10-12T04:23:24.250Z,62.71
2017-10-12T04:24:24.272Z,62.62
2017-10-12T04:25:24.292Z,62.52
2017-10-12T04:26:24.313Z,62.04
2017-10-12T04:27:24.332Z,62.33
2017-10-12T04:28:24.357Z,62.14
2017-10-12T04:29:24.425Z,61.57
2017-10-12T04:30:24.394Z,61.95
2017-10-12T04:31:24.414Z,62.24
2017-10-12T04:32:24.770Z,62.04
2017-10-12T04:33:24.461Z,62.04
2017-10-12T04:34:24.479Z,61.76
2017-10-12T04:35:24.499Z,61.85
2017-10-12T04:36:24.530Z,61.47
2017-10-12T04:37:24.599Z,61.85
2017-10-12T04:38:24.573Z,61.66
2017-10-12T04:39:24.580Z,61.76
2017-10-12T04:40:24.600Z,61.57
2017-10-12T04:41:24.621Z,60.99
2017-10-12T04:42:24.644Z,60.9
2017-10-12T04:43:24.670Z,61.09
2017-10-12T04:44:24.741Z,61.19
2017-10-12T04:45:24.704Z,60.55
2017-10-12T04:46:24.727Z,60.64
2017-10-12T04:47:24.752Z,60.93
2017-10-12T04:48:24.771Z,60.99
2017-10-12T04:49:24.795Z,60.71
2017-10-12T04:50:24.809Z,60.71
2017-10-12T04:51:24.831Z,60.8
2017-10-12T04:52:24.850Z,60.99
2017-10-12T04:53:24.871Z,60.42
2017-10-12T04:54:24.890Z,60.71
2017-10-12T04:55:24.912Z,60.8
2017-10-12T04:56:24.933Z,60.71
2017-10-12T04:57:24.955Z,60.99
2017-10-12T04:58:24.974Z,60.99
2017-10-12T04:59:24.997Z,60.8
2017-10-12T05:00:25.017Z,60.99
2017-10-12T05:01:25.092Z,60.9
2017-10-12T05:02:25.057Z,60.99
2017-10-12T05:03:25.077Z,60.61
2017-10-12T05:04:25.098Z,60.71
2017-10-12T05:05:25.123Z,60.61
2017-10-12T05:06:25.140Z,61.09
2017-10-12T05:07:25.164Z,60.71
2017-10-12T05:08:25.184Z,60.8
2017-10-12T05:09:25.203Z,60.61
2017-10-12T05:10:25.550Z,60.8
2017-10-12T05:11:25.246Z,60.9
2017-10-12T05:12:25.275Z,60.33
2017-10-12T05:13:25.289Z,60.13
2017-10-12T05:14:25.312Z,60.61
2017-10-12T05:15:25.351Z,60.13
2017-10-12T05:16:25.348Z,60.61
2017-10-12T05:17:25.377Z,59.97
2017-10-12T05:18:25.397Z,59.75
2017-10-12T05:19:25.412Z,59.56
2017-10-12T05:20:25.434Z,59.75
2017-10-12T05:21:25.466Z,59.59
2017-10-12T05:22:25.480Z,60.55
2017-10-12T05:23:25.502Z,59.59
2017-10-12T05:24:25.520Z,59.69
2017-10-12T05:25:25.540Z,60.16
2017-10-12T05:26:25.562Z,59.2
2017-10-12T05:27:25.583Z,59.88
2017-10-12T05:28:25.627Z,59.2
2017-10-12T05:29:25.635Z,59.49
2017-10-12T05:30:25.961Z,59.97
2017-10-12T05:31:25.665Z,59.69
2017-10-12T05:32:25.687Z,59.97
2017-10-12T05:33:25.712Z,59.97
2017-10-12T05:34:25.738Z,60.55
2017-10-12T05:35:25.752Z,60.45
2017-10-12T05:36:25.778Z,60.35
2017-10-12T05:37:26.127Z,59.59
2017-10-12T05:38:25.823Z,59.97
2017-10-12T05:39:25.836Z,59.97
2017-10-12T05:40:25.856Z,60.35
2017-10-12T05:41:25.879Z,59.4
2017-10-12T05:42:25.895Z,59.4
2017-10-12T05:43:26.251Z,60.16
2017-10-12T05:44:25.937Z,60.35
2017-10-12T05:45:25.960Z,59.78
2017-10-12T05:46:25.980Z,60.26
2017-10-12T05:47:26.006Z,60.45
2017-10-12T05:48:26.026Z,60.64
2017-10-12T05:49:26.045Z,60.64
2017-10-12T05:50:26.070Z,60.16
2017-10-12T05:51:26.094Z,60.64
2017-10-12T05:52:26.109Z,60.35
2017-10-12T05:53:26.151Z,60.35
2017-10-12T05:54:26.150Z,60.16
2017-10-12T05:55:26.173Z,60.93
2017-10-12T05:56:26.198Z,60.23
2017-10-12T05:57:26.211Z,60.93
2017-10-12T05:58:26.234Z,60.74
2017-10-12T05:59:26.261Z,60.35
2017-10-12T06:00:26.278Z,60.35
2017-10-12T06:01:26.340Z,60.55
2017-10-12T06:02:26.317Z,60.83
2017-10-12T06:03:26.344Z,60.45
2017-10-12T06:04:26.364Z,60.83
2017-10-12T06:05:26.381Z,60.74
2017-10-12T06:06:26.403Z,60.55
2017-10-12T06:07:26.426Z,60.55
2017-10-12T06:08:26.454Z,60.93
2017-10-12T06:09:26.821Z,60.83
2017-10-12T06:10:26.487Z,60.64
2017-10-12T06:11:26.512Z,60.64
2017-10-12T06:12:26.529Z,60.99
2017-10-12T06:13:26.552Z,60.45
2017-10-12T06:14:26.582Z,60.74
2017-10-12T06:15:26.596Z,60.83
2017-10-12T06:16:26.639Z,60.64
2017-10-12T06:17:26.645Z,60.83
2017-10-12T06:18:26.652Z,60.45
2017-10-12T06:19:26.683Z,60.64
2017-10-12T06:20:26.707Z,60.16
2017-10-12T06:21:26.717Z,60.55
2017-10-12T06:22:26.746Z,60.45
2017-10-12T06:23:26.761Z,60.45
2017-10-12T06:24:26.782Z,60.64
2017-10-12T06:25:26.802Z,60.55
2017-10-12T06:26:26.824Z,60.35
2017-10-12T06:27:26.896Z,60.26
2017-10-12T06:28:26.866Z,60.35
2017-10-12T06:29:26.890Z,60.35
2017-10-12T06:30:26.908Z,60.35
2017-10-12T06:31:26.934Z,60.45
2017-10-12T06:32:26.952Z,60.35
2017-10-12T06:33:26.972Z,60.35
2017-10-12T06:34:26.992Z,60.26
2017-10-12T06:35:27.016Z,60.16
2017-10-12T06:36:27.034Z,59.88
2017-10-12T06:37:27.059Z,59.59
2017-10-12T06:38:27.100Z,59.78
2017-10-12T06:39:27.097Z,59.69
2017-10-12T06:40:27.126Z,59.78
2017-10-12T06:41:27.140Z,59.43
2017-10-12T06:42:27.165Z,59.33
2017-10-12T06:43:27.183Z,59.23
2017-10-12T06:44:27.206Z,59.33
2017-10-12T06:45:27.225Z,59.43
2017-10-12T06:46:27.246Z,59.33
2017-10-12T06:47:27.266Z,59.14
2017-10-12T06:48:27.288Z,58.86
2017-10-12T06:49:27.308Z,58.86
2017-10-12T06:50:27.338Z,58.66
2017-10-12T06:51:27.361Z,58.56
2017-10-12T06:52:27.374Z,58.66
2017-10-12T06:53:27.732Z,58.86
2017-10-12T06:54:27.434Z,58.76
2017-10-12T06:55:27.778Z,58.76
2017-10-12T06:56:27.458Z,58.56
2017-10-12T06:57:27.478Z,58.59
2017-10-12T06:58:27.509Z,57.83
2017-10-12T06:59:27.522Z,57.54
2017-10-12T07:00:27.593Z,57.92
2017-10-12T07:01:27.565Z,57.64
2017-10-12T07:02:27.599Z,57.83
2017-10-12T07:03:27.614Z,57.73
2017-10-12T07:04:27.633Z,57.26
2017-10-12T07:05:27.657Z,57.35
2017-10-12T07:06:27.678Z,57.73
2017-10-12T07:07:27.691Z,57.35
2017-10-12T07:08:27.721Z,57.06
2017-10-12T07:09:28.069Z,57.54
2017-10-12T07:10:27.756Z,57.73
2017-10-12T07:11:27.785Z,57.73
2017-10-12T07:12:27.808Z,56.87
2017-10-12T07:13:27.825Z,57.38
2017-10-12T07:14:27.846Z,57.57
2017-10-12T07:15:28.976Z,57.57
2017-10-12T07:16:27.892Z,57.57
2017-10-12T07:17:27.927Z,57.48
2017-10-12T07:18:27.932Z,56.9
2017-10-12T07:19:27.955Z,56.71
2017-10-12T07:20:28.671Z,57.28
2017-10-12T07:21:28.618Z,56.52
2017-10-12T07:22:28.018Z,56.52
2017-10-12T07:23:28.047Z,57.03
2017-10-12T07:24:28.063Z,57.09
2017-10-12T07:25:28.089Z,56.9
2017-10-12T07:26:28.107Z,57.19
2017-10-12T07:27:28.135Z,57.31
2017-10-12T07:28:28.156Z,56.93
2017-10-12T07:29:28.185Z,57.41
2017-10-12T07:30:28.200Z,57.41
2017-10-12T07:31:28.225Z,56.83
2017-10-12T07:32:28.252Z,56.45
2017-10-12T07:33:28.263Z,56.83
2017-10-12T07:34:28.286Z,57.21
2017-10-12T07:35:28.306Z,56.74
2017-10-12T07:36:28.336Z,56.74
2017-10-12T07:37:28.352Z,56.64
2017-10-12T07:38:28.373Z,56.83
2017-10-12T07:39:28.401Z,56.26
2017-10-12T07:40:28.440Z,56.19
2017-10-12T07:41:28.453Z,56.67
2017-10-12T07:42:28.467Z,56.19
2017-10-12T07:43:28.500Z,55.8
2017-10-12T07:44:28.510Z,56.29
2017-10-12T07:45:28.529Z,55.8
2017-10-12T07:46:28.553Z,55.62
2017-10-12T07:47:28.575Z,55.64
2017-10-12T07:48:28.597Z,55.93
2017-10-12T07:49:28.617Z,55.55
2017-10-12T07:50:28.695Z,55.55
2017-10-12T07:51:28.988Z,55.74
2017-10-12T07:52:28.686Z,55.74
2017-10-12T07:53:29.047Z,56.31
2017-10-12T07:54:28.731Z,56.09
2017-10-12T07:55:28.756Z,56.31
2017-10-12T07:56:29.110Z,55.45
2017-10-12T07:57:28.798Z,56.02
2017-10-12T07:58:28.820Z,55.64
2017-10-12T07:59:28.846Z,55.74
2017-10-12T08:00:28.869Z,55.74
2017-10-12T08:01:28.891Z,55.64
2017-10-12T08:02:28.912Z,55.83
2017-10-12T08:03:28.942Z,55.74
2017-10-12T08:04:29.284Z,55.86
2017-10-12T08:05:29.029Z,55.96
2017-10-12T08:06:29.005Z,56.05
2017-10-12T08:07:29.026Z,55.67
2017-10-12T08:08:29.052Z,55.77
2017-10-12T08:09:29.076Z,55.74
2017-10-12T08:10:29.113Z,55.86
2017-10-12T08:11:29.117Z,55.86
2017-10-12T08:12:29.144Z,55.96
2017-10-12T08:13:29.163Z,55.67
2017-10-12T08:14:29.187Z,55.96
2017-10-12T08:15:29.214Z,55.57
2017-10-12T08:16:29.237Z,55.22
2017-10-12T08:17:29.256Z,54.74
2017-10-12T08:18:29.285Z,54.83
2017-10-12T08:19:29.312Z,54.83
2017-10-12T08:20:29.325Z,55.32
2017-10-12T08:21:29.349Z,55.02
2017-10-12T08:22:29.402Z,55.41
2017-10-12T08:23:29.415Z,55.99
2017-10-12T08:24:29.420Z,55.79
2017-10-12T08:25:29.444Z,55.79
2017-10-12T08:26:29.469Z,56.27
2017-10-12T08:27:29.489Z,55.79
2017-10-12T08:28:29.517Z,55.77
2017-10-12T08:29:29.540Z,56.05
2017-10-12T08:30:29.879Z,55.86
2017-10-12T08:31:29.590Z,56.24
2017-10-12T08:32:29.930Z,56.18
2017-10-12T08:33:29.970Z,55.79
2017-10-12T08:34:29.659Z,55.51
2017-10-12T08:35:29.680Z,55.02
2017-10-12T08:36:29.704Z,54.96
2017-10-12T08:37:30.114Z,54.86
2017-10-12T08:38:29.752Z,54.86
2017-10-12T08:39:29.780Z,54.96
2017-10-12T08:40:29.800Z,55.41
2017-10-12T08:41:29.838Z,55.02
2017-10-12T08:42:29.846Z,54.96
2017-10-12T08:43:30.301Z,55.32
2017-10-12T08:44:29.894Z,55.69
2017-10-12T08:45:29.928Z,55.41
2017-10-12T08:46:29.940Z,54.77
2017-10-12T08:47:29.964Z,54.28
2017-10-12T08:48:29.990Z,53.61
2017-10-12T08:49:30.013Z,53.83
2017-10-12T08:50:30.040Z,53.74
2017-10-12T08:51:30.067Z,53.35
2017-10-12T08:52:30.087Z,52.68
2017-10-12T08:53:30.165Z,53.16
2017-10-12T08:54:30.134Z,52.29
2017-10-12T08:55:30.162Z,52.51
2017-10-12T08:56:30.182Z,52.42
2017-10-12T08:57:30.208Z,51.64
2017-10-12T08:58:30.234Z,51.45
2017-10-12T08:59:30.261Z,50.99
2017-10-12T09:00:30.285Z,50.9
2017-10-12T09:01:30.304Z,50.42
2017-10-12T09:02:30.332Z,50.61
2017-10-12T09:03:30.355Z,50.9
2017-10-12T09:04:30.380Z,50.61
2017-10-12T09:05:30.738Z,50.81
2017-10-12T09:06:30.434Z,51.07
2017-10-12T09:07:30.456Z,51.64
2017-10-12T09:08:30.529Z,51.55
2017-10-12T09:09:30.505Z,51.07
2017-10-12T09:10:30.752Z,51.35
2017-10-12T09:11:30.555Z,51.35
2017-10-12T09:12:30.576Z,50.99
2017-10-12T09:13:30.941Z,50.51
2017-10-12T09:14:30.631Z,51.38
2017-10-12T09:15:30.659Z,51.19
2017-10-12T09:16:30.679Z,51.57
2017-10-12T09:17:30.707Z,51.64
2017-10-12T09:18:30.727Z,52.42
2017-10-12T09:19:30.748Z,52.22
2017-10-12T09:20:30.776Z,52.03
2017-10-12T09:21:30.819Z,51.38
2017-10-12T09:22:30.826Z,51.38
2017-10-12T09:23:30.909Z,51.76
2017-10-12T09:24:30.888Z,51.64
2017-10-12T09:25:30.901Z,51.26
2017-10-12T09:26:30.921Z,51.29
2017-10-12T09:27:30.947Z,50.99
2017-10-12T09:28:30.988Z,50.9
2017-10-12T09:29:31.006Z,50.61
2017-10-12T09:30:31.022Z,50.99
2017-10-12T09:31:31.047Z,51.48
2017-10-12T09:32:31.077Z,50.9
2017-10-12T09:33:31.097Z,51.48
2017-10-12T09:34:31.127Z,51.19
2017-10-12T09:35:31.152Z,50.9
2017-10-12T09:36:31.275Z,50.9
2017-10-12T09:37:31.207Z,50.71
2017-10-12T09:38:31.227Z,50.81
2017-10-12T09:39:31.250Z,49.68
2017-10-12T09:40:31.274Z,49.77
2017-10-12T09:41:31.355Z,49.51
2017-10-12T09:42:31.325Z,49.96
2017-10-12T09:43:31.351Z,50.15
2017-10-12T09:44:31.376Z,50.32
2017-10-12T09:45:31.402Z,50.32
2017-10-12T09:46:31.424Z,49.68
2017-10-12T09:47:31.453Z,49.68
2017-10-12T09:48:31.474Z,50.35
2017-10-12T09:49:31.501Z,50.35
2017-10-12T09:50:31.530Z,50.25
2017-10-12T09:51:31.553Z,49.58
2017-10-12T09:52:31.586Z,49.77
2017-10-12T09:53:31.608Z,49.58
2017-10-12T09:54:31.643Z,49.68
2017-10-12T09:55:31.659Z,50.04
2017-10-12T09:56:31.678Z,50.32
2017-10-12T09:57:31.705Z,50.42
2017-10-12T09:58:31.727Z,50.63
2017-10-12T09:59:31.756Z,51.38
2017-10-12T10:00:31.829Z,51.29
2017-10-12T10:01:31.810Z,51.38
2017-10-12T10:02:31.836Z,51.19
2017-10-12T10:03:31.856Z,50.99
2017-10-12T10:04:31.878Z,50.99
2017-10-12T10:05:31.904Z,50.99
2017-10-12T10:06:31.934Z,50.81
2017-10-12T10:07:31.958Z,51.09
2017-10-12T10:08:31.984Z,51.29
2017-10-12T10:09:32.015Z,50.71
2017-10-12T10:10:32.031Z,50.99
2017-10-12T10:11:32.054Z,50.63
2017-10-12T10:12:32.085Z,49.87
2017-10-12T10:13:32.106Z,50.45
2017-10-12T10:14:32.132Z,49.87
2017-10-12T10:15:32.214Z,50.15
2017-10-12T10:16:32.187Z,51.02
2017-10-12T10:17:32.533Z,50.83
2017-10-12T10:18:32.235Z,50.99
2017-10-12T10:19:32.265Z,51.67
2017-10-12T10:20:32.283Z,51.96
2017-10-12T10:21:32.311Z,52.15
2017-10-12T10:22:32.343Z,52.42
2017-10-12T10:23:32.366Z,51.86
2017-10-12T10:24:32.406Z,51.48
2017-10-12T10:25:32.410Z,50.63
2017-10-12T10:26:32.438Z,50.06
2017-10-12T10:27:32.461Z,49.02
2017-10-12T10:28:32.489Z,49.24
2017-10-12T10:29:32.515Z,49.22
2017-10-12T10:30:32.600Z,49.6
2017-10-12T10:31:32.585Z,49.96
2017-10-12T10:32:32.596Z,49.7
2017-10-12T10:33:32.950Z,49.6
2017-10-12T10:34:32.641Z,49.32
2017-10-12T10:35:32.668Z,49.22
2017-10-12T10:36:32.696Z,48.95
2017-10-12T10:37:32.724Z,49.15
2017-10-12T10:38:32.753Z,49.41
2017-10-12T10:39:32.778Z,49.05
2017-10-12T10:40:32.804Z,48.47
2017-10-12T10:41:32.831Z,48.01
2017-10-12T10:42:32.861Z,47.72
2017-10-12T10:43:32.884Z,48.3
2017-10-12T10:44:33.114Z,47.82
2017-10-12T10:45:33.270Z,47.45
2017-10-12T10:46:32.972Z,47.36
2017-10-12T10:47:32.992Z,48.69
2017-10-12T10:48:33.072Z,49.24
2017-10-12T10:49:33.047Z,49.91
2017-10-12T10:50:33.074Z,49.7
2017-10-12T10:51:33.112Z,50.85
2017-10-12T10:52:33.124Z,50.95
2017-10-12T10:53:33.158Z,49.89
2017-10-12T10:54:33.180Z,50.09
2017-10-12T10:55:33.205Z,50.95
2017-10-12T10:56:33.230Z,50.95
2017-10-12T10:57:33.256Z,51.5
2017-10-12T10:58:33.289Z,51.89
2017-10-12T10:59:33.308Z,51.89
2017-10-12T11:00:33.333Z,52.85
2017-10-12T11:01:33.363Z,53.31
2017-10-12T11:02:33.386Z,53.02
2017-10-12T11:03:33.465Z,52.73
2017-10-12T11:04:33.436Z,53.11
2017-10-12T11:05:33.461Z,53.62
2017-10-12T11:06:33.493Z,54.17
2017-10-12T11:07:33.517Z,54.75
2017-10-12T11:08:33.546Z,54.46
2017-10-12T11:09:33.567Z,54.08
2017-10-12T11:10:33.589Z,54.65
2017-10-12T11:11:33.610Z,55.13
2017-10-12T11:12:33.642Z,55.43
2017-10-12T11:13:33.675Z,56.45
2017-10-12T11:14:33.688Z,56.55
2017-10-12T11:15:33.716Z,56.62
2017-10-12T11:16:33.735Z,56.62
2017-10-12T11:17:33.760Z,57.39
2017-10-12T11:18:33.786Z,56.81
2017-10-12T11:19:33.814Z,57.58
2017-10-12T11:20:33.883Z,58.06
2017-10-12T11:21:33.858Z,57.2
2017-10-12T11:22:33.896Z,57.48
2017-10-12T11:23:33.908Z,57.97
2017-10-12T11:24:33.931Z,57.77
2017-10-12T11:25:33.953Z,58.54
2017-10-12T11:26:33.978Z,58.15
2017-10-12T11:27:34.005Z,58.25
2017-10-12T11:28:34.356Z,58.8
2017-10-12T11:29:34.055Z,59.28
2017-10-12T11:30:34.072Z,59.86
2017-10-12T11:31:34.097Z,59.38
2017-10-12T11:32:34.119Z,60.14
2017-10-12T11:33:34.146Z,60.21
2017-10-12T11:34:34.180Z,59.09
2017-10-12T11:35:34.239Z,59.38
2017-10-12T11:36:34.220Z,59.38
2017-10-12T11:37:34.238Z,59.76
2017-10-12T11:38:34.268Z,59.57
2017-10-12T11:39:34.288Z,59.47
2017-10-12T11:40:34.307Z,59.86
2017-10-12T11:41:34.330Z,59.76
2017-10-12T11:42:34.355Z,59.83
2017-10-12T11:43:34.379Z,59.64
2017-10-12T11:44:34.408Z,59.83
2017-10-12T11:45:34.427Z,60.88
2017-10-12T11:46:34.453Z,60.88
2017-10-12T11:47:34.472Z,61.08
2017-10-12T11:48:34.502Z,60.78
2017-10-12T11:49:34.521Z,60.78
2017-10-12T11:50:34.613Z,60.5
2017-10-12T11:51:34.562Z,61.08
2017-10-12T11:52:34.591Z,60.88
2017-10-12T11:53:34.613Z,61.17
2017-10-12T11:54:34.631Z,60.5
2017-10-12T11:55:34.656Z,61.17
2017-10-12T11:56:34.681Z,61.08
2017-10-12T11:57:34.701Z,60.98
2017-10-12T11:58:34.724Z,61.75
2017-10-12T11:59:34.747Z,61.17
2017-10-12T12:00:34.781Z,61.08
2017-10-12T12:01:34.799Z,61.27
2017-10-12T12:02:34.815Z,61.46
2017-10-12T12:03:34.840Z,60.98
2017-10-12T12:04:34.862Z,61.84
2017-10-12T12:05:34.946Z,61.55
2017-10-12T12:06:34.914Z,62.04
2017-10-12T12:07:34.931Z,62.48
2017-10-12T12:08:34.957Z,62.42
2017-10-12T12:09:34.977Z,62.19
2017-10-12T12:10:35.006Z,62.32
2017-10-12T12:11:35.026Z,62.23
2017-10-12T12:12:35.046Z,62.96
2017-10-12T12:13:35.078Z,62.96
2017-10-12T12:14:35.093Z,62.96
2017-10-12T12:15:35.119Z,62.96
2017-10-12T12:16:35.140Z,63.25
2017-10-12T12:17:35.163Z,63.45
2017-10-12T12:18:35.186Z,63.06
2017-10-12T12:19:35.212Z,63.19
2017-10-12T12:20:35.233Z,63.35
2017-10-12T12:21:35.254Z,63.92
2017-10-12T12:22:35.281Z,63.16
2017-10-12T12:23:35.304Z,63.35
2017-10-12T12:24:35.325Z,62.71
2017-10-12T12:25:35.347Z,63.38
2017-10-12T12:26:35.367Z,63.54
2017-10-12T12:27:35.392Z,62.99
2017-10-12T12:28:35.432Z,63.19
2017-10-12T12:29:35.443Z,62.99
2017-10-12T12:30:35.462Z,62.99
2017-10-12T12:31:35.487Z,62.9
2017-10-12T12:32:35.636Z,62.9
2017-10-12T12:33:35.534Z,62.71
2017-10-12T12:34:35.565Z,63.28
2017-10-12T12:35:35.906Z,62.71
2017-10-12T12:36:35.616Z,62.81
2017-10-12T12:37:35.629Z,63.38
2017-10-12T12:38:35.652Z,63.16
2017-10-12T12:39:35.679Z,63.09
2017-10-12T12:40:35.700Z,63.09
2017-10-12T12:41:35.768Z,62.99
2017-10-12T12:42:35.747Z,62.61
2017-10-12T12:43:35.767Z,62.9
2017-10-12T12:44:35.799Z,62.71
2017-10-12T12:45:35.816Z,62.81
2017-10-12T12:46:35.838Z,62.23
2017-10-12T12:47:35.858Z,61.78
2017-10-12T12:48:35.889Z,60.91
2017-10-12T12:49:35.909Z,61.2
2017-10-12T12:50:35.930Z,61.11
2017-10-12T12:51:35.953Z,61.2
2017-10-12T12:52:35.979Z,60.72
2017-10-12T12:53:36.013Z,60.75
2017-10-12T12:54:36.029Z,59.02